Address 0x2194d1cada4d50d4658eb3a9e83e984e14aa185b

 

Txn Hash Method
Block
From
To
Value [Txn Fee]
Latest 25 internal transaction
Parent Txn Hash Block From To Value
0x42f1f54a6f55bb4fdd738963d604f0f66c18d0e44fa917be19e052894ae9f3d384908592021-06-21 13:20:2595 days 19 hrs ago 0x5b44f14c328bea2cae08a6c8da27491a2a9400100x2194d1cada4d50d4658eb3a9e83e984e14aa185b0.0018 BNB
0x2f27d8322a61a8bd50460ce9573fd86b14a8d4414bd915619a674b98e8e8662c84906772021-06-21 13:11:1895 days 19 hrs ago 0x5b44f14c328bea2cae08a6c8da27491a2a9400100x2194d1cada4d50d4658eb3a9e83e984e14aa185b0.000279163013851621 BNB
0xb8f92b7d1b9752713b3b24310fb1737df194c208e8dd92fc6c3e610be3711bae84906762021-06-21 13:11:1595 days 19 hrs ago 0x5b44f14c328bea2cae08a6c8da27491a2a9400100x2194d1cada4d50d4658eb3a9e83e984e14aa185b0.00015 BNB
0x54744d57e484e71954222bddb069aa582297cd3d648b12cc30e3b6e46a93a56284902252021-06-21 12:48:3895 days 19 hrs ago 0x5b44f14c328bea2cae08a6c8da27491a2a9400100x2194d1cada4d50d4658eb3a9e83e984e14aa185b0.02145327058431027 BNB
0xbef41d2f0a52e5fd5d1d86a1e8f07c57a9792a4d39fe6e67fe04991edda770bf84901842021-06-21 12:46:3595 days 19 hrs ago 0x5b44f14c328bea2cae08a6c8da27491a2a9400100x2194d1cada4d50d4658eb3a9e83e984e14aa185b0.009 BNB
0xa21243cb7122a317c9ba91eb4b92e12969426439479f6ff07d60359df8d0bf1f84901042021-06-21 12:42:3595 days 19 hrs ago 0x5b44f14c328bea2cae08a6c8da27491a2a9400100x2194d1cada4d50d4658eb3a9e83e984e14aa185b0.009 BNB
0xb51520e0a240841b27686fdf1a75e74a14bf057518d702ba8b75b7f18711f20b84844682021-06-21 8:00:0396 days 30 mins ago 0x5b44f14c328bea2cae08a6c8da27491a2a9400100x2194d1cada4d50d4658eb3a9e83e984e14aa185b0.001446 BNB
0x71dc96e6dedff80ce28ac9015a1e3b17efe8ff0c991bae5bc79cbfdc8b0ab39584834412021-06-21 7:08:2596 days 1 hr ago 0x5b44f14c328bea2cae08a6c8da27491a2a9400100x2194d1cada4d50d4658eb3a9e83e984e14aa185b0.0006 BNB
0x3e7d26a309e361ef65d61071c00aa360e1dd625e60dbcfc8673464f1783d4b5184832222021-06-21 6:57:2896 days 1 hr ago 0x5b44f14c328bea2cae08a6c8da27491a2a9400100x2194d1cada4d50d4658eb3a9e83e984e14aa185b0.0039 BNB
0x37b44b115a53248f8489c7baacaa07951dc50a65e2bd52731dd4f1173c3292ea84820982021-06-21 6:01:1696 days 2 hrs ago 0x5b44f14c328bea2cae08a6c8da27491a2a9400100x2194d1cada4d50d4658eb3a9e83e984e14aa185b0.00951 BNB
0x2894c3936a2cf5d684808609b927d147605a66884429a4e9c21d2a675c93cb6b84817772021-06-21 5:45:1396 days 2 hrs ago 0x5b44f14c328bea2cae08a6c8da27491a2a9400100x2194d1cada4d50d4658eb3a9e83e984e14aa185b0.00018 BNB
0x2cb0bf1c7d3b0c37822d4a30ad1ff06ba886f6d1b15e12dee77948e3d93e64b984811962021-06-21 5:16:1096 days 3 hrs ago 0x5b44f14c328bea2cae08a6c8da27491a2a9400100x2194d1cada4d50d4658eb3a9e83e984e14aa185b0.021 BNB
0x8c9adc27e0c953305b1d9dbf6abd7ad578dffb114ebbae6a54402093362a2c1884782842021-06-21 2:50:2096 days 5 hrs ago 0x5b44f14c328bea2cae08a6c8da27491a2a9400100x2194d1cada4d50d4658eb3a9e83e984e14aa185b0.0003 BNB
0xf5cd87fbed2d8ca852a94727564546b65cf7d0b8f762ee0374371b0476b1163084762862021-06-21 1:10:2396 days 7 hrs ago 0x5b44f14c328bea2cae08a6c8da27491a2a9400100x2194d1cada4d50d4658eb3a9e83e984e14aa185b0.006 BNB
0x04c12116d04afe9c958f76ca6b8d0a1f3a3a41795ce5450e741f6cc4f40e7a2484754032021-06-21 0:26:1496 days 8 hrs ago 0x5b44f14c328bea2cae08a6c8da27491a2a9400100x2194d1cada4d50d4658eb3a9e83e984e14aa185b0.003 BNB
0x12952b90903faeaac052c8326d1cf97e9ef339da807a22a7fa5c517ff8dd300984734682021-06-20 22:49:2996 days 9 hrs ago 0x5b44f14c328bea2cae08a6c8da27491a2a9400100x2194d1cada4d50d4658eb3a9e83e984e14aa185b0.00003 BNB
0x90e7fb830b26b69063a1383eade6f40d9d7c20de6846128c88cc9caf5e56b04584680672021-06-20 18:19:2696 days 14 hrs ago 0x5b44f14c328bea2cae08a6c8da27491a2a9400100x2194d1cada4d50d4658eb3a9e83e984e14aa185b0.00006 BNB
0x9d9225d61749a4b5186f301b8c48990fe844e4fa9eeed810aa0ddb7ea350a33084656222021-06-20 16:17:1196 days 16 hrs ago 0x5b44f14c328bea2cae08a6c8da27491a2a9400100x2194d1cada4d50d4658eb3a9e83e984e14aa185b0.003 BNB
0xb3723cda4594a02d51a8acebc92f13b56c91da04e9a75a73499209fdd29e718284594442021-06-20 11:08:1796 days 21 hrs ago 0x5b44f14c328bea2cae08a6c8da27491a2a9400100x2194d1cada4d50d4658eb3a9e83e984e14aa185b0.00003 BNB
0xde4254d70495589c44fa4c952619e909f0eaf1a86a65663610b648c0e8e315ab84548062021-06-20 7:15:2397 days 1 hr ago 0x5b44f14c328bea2cae08a6c8da27491a2a9400100x2194d1cada4d50d4658eb3a9e83e984e14aa185b0.000078345059992366 BNB
0x6212f3129c9ec4a83007292232914308f089b1958f12dd79f7694795d6cefef784519092021-06-20 4:50:1397 days 3 hrs ago 0x5b44f14c328bea2cae08a6c8da27491a2a9400100x2194d1cada4d50d4658eb3a9e83e984e14aa185b0.00006 BNB
0x463db6bd9b975a58f2ee8a1e5c961826bb3bf07bb07e6a3200476e5f9586994084450552021-06-19 23:07:2297 days 9 hrs ago 0x5b44f14c328bea2cae08a6c8da27491a2a9400100x2194d1cada4d50d4658eb3a9e83e984e14aa185b0.0006 BNB
0x817ce864c4a106282a0d516682345b43165f93773b3d980083462c369d137f6c84420172021-06-19 20:35:2897 days 11 hrs ago 0x5b44f14c328bea2cae08a6c8da27491a2a9400100x2194d1cada4d50d4658eb3a9e83e984e14aa185b0.0003 BNB
0xa381ae4f2b8e217f2dfb8fa8e005a129a5b75a2c836ea7630c0ec999c5b607e784412002021-06-19 19:54:3797 days 12 hrs ago 0x5b44f14c328bea2cae08a6c8da27491a2a9400100x2194d1cada4d50d4658eb3a9e83e984e14aa185b0.003 BNB
0x2b35bdecd639b74eccf1ab1ee2fba6d651d2e2e83379a130b83584a931d67aa984337722021-06-19 13:38:1897 days 18 hrs ago 0x5b44f14c328bea2cae08a6c8da27491a2a9400100x2194d1cada4d50d4658eb3a9e83e984e14aa185b0.0021 BNB
[ Download CSV Export 
Loading

Contract Name:
0 BNB

Compiler Version
0

Optimization Enabled:
0 BNB

Other Settings:
-NA-
Block Transaction Gas Used Reward
Age Block Fee Address BC Fee Address Voting Power Jailed Incoming
Block Uncle Number Difficulty Gas Used Reward
Loading
Loading
Make sure to use the "Vote Down" button for any spammy posts, and the "Vote Up" for interesting conversations.